createdAt,value
2018-02-18T00:01:42.524Z,116.50
2018-02-18T00:04:10.336Z,108.33
2018-02-18T00:06:37.877Z,113.53
2018-02-18T00:09:05.414Z,109.23
2018-02-18T00:11:33.048Z,116.43
2018-02-18T00:14:00.594Z,114.67
2018-02-18T00:16:28.127Z,114.67
2018-02-18T00:18:55.727Z,124.97
2018-02-18T00:21:23.277Z,129.03
2018-02-18T00:23:50.827Z,125.50
2018-02-18T00:26:18.384Z,117.70
2018-02-18T00:28:45.917Z,127.37
2018-02-18T00:31:13.530Z,124.03
2018-02-18T00:33:41.076Z,120.87
2018-02-18T00:36:08.614Z,119.33
2018-02-18T00:38:36.342Z,126.53
2018-02-18T00:41:03.910Z,126.50
2018-02-18T00:43:31.466Z,123.30
2018-02-18T00:45:59.013Z,128.77
2018-02-18T00:48:26.613Z,125.47
2018-02-18T00:50:54.233Z,105.37
2018-02-18T00:53:21.784Z,126.63
2018-02-18T00:55:49.340Z,122.90
2018-02-18T00:58:16.895Z,108.23
2018-02-18T01:00:44.458Z,115.37
2018-02-18T01:03:12.011Z,137.23
2018-02-18T01:05:39.614Z,142.73
2018-02-18T01:08:07.183Z,144.20
2018-02-18T01:10:34.739Z,141.90
2018-02-18T01:13:02.315Z,143.00
2018-02-18T01:15:29.892Z,129.40
2018-02-18T01:17:57.450Z,164.00
2018-02-18T01:20:25.019Z,184.53
2018-02-18T01:22:52.547Z,173.13
2018-02-18T01:25:20.115Z,174.97
2018-02-18T01:27:47.659Z,153.90
2018-02-18T01:30:15.206Z,172.43
2018-02-18T01:32:42.840Z,172.10
2018-02-18T01:35:10.372Z,154.90
2018-02-18T01:37:37.927Z,149.10
2018-02-18T01:40:05.502Z,141.97
2018-02-18T01:42:33.072Z,171.77
2018-02-18T01:45:00.605Z,172.60
2018-02-18T01:47:28.189Z,226.53
2018-02-18T01:49:55.729Z,178.53
2018-02-18T01:52:23.251Z,173.93
2018-02-18T01:54:50.822Z,156.77
2018-02-18T01:57:18.455Z,151.97
2018-02-18T01:59:46.007Z,170.50
2018-02-18T02:02:13.547Z,156.07
2018-02-18T02:04:41.127Z,147.17
2018-02-18T02:07:08.665Z,155.87
2018-02-18T02:09:36.189Z,186.57
2018-02-18T02:12:03.786Z,172.00
2018-02-18T02:14:31.407Z,164.07
2018-02-18T02:16:58.978Z,167.90
2018-02-18T02:19:26.540Z,181.67
2018-02-18T02:21:54.117Z,193.53
2018-02-18T02:24:21.667Z,211.30
2018-02-18T02:26:49.188Z,198.87
2018-02-18T02:29:16.759Z,207.93
2018-02-18T02:31:44.310Z,202.87
2018-02-18T02:34:11.885Z,171.77
2018-02-18T02:36:39.439Z,187.20
2018-02-18T02:39:06.995Z,179.70
2018-02-18T02:41:34.542Z,163.40
2018-02-18T02:44:02.144Z,150.83
2018-02-18T02:46:29.677Z,177.30
2018-02-18T02:48:57.226Z,152.17
2018-02-18T02:51:24.838Z,152.93
2018-02-18T02:53:52.371Z,171.10
2018-02-18T02:56:20.024Z,181.40
2018-02-18T02:58:47.674Z,171.00
2018-02-18T03:01:15.236Z,145.33
2018-02-18T03:03:42.835Z,162.10
2018-02-18T03:06:10.501Z,168.40
2018-02-18T03:08:38.060Z,148.43
2018-02-18T03:11:05.607Z,148.50
2018-02-18T03:13:33.206Z,159.23
2018-02-18T03:16:00.750Z,145.57
2018-02-18T03:18:28.291Z,134.47
2018-02-18T03:20:55.839Z,158.80
2018-02-18T03:23:23.365Z,172.77
2018-02-18T03:25:50.944Z,168.03
2018-02-18T03:28:18.487Z,179.93
2018-02-18T03:30:46.032Z,144.57
2018-02-18T03:33:13.645Z,145.03
2018-02-18T03:35:41.213Z,158.23
2018-02-18T03:38:08.731Z,186.10
2018-02-18T03:40:36.331Z,142.03
2018-02-18T03:43:03.895Z,146.93
2018-02-18T03:45:31.442Z,134.67
2018-02-18T03:47:58.981Z,159.27
2018-02-18T03:50:26.581Z,154.70
2018-02-18T03:52:54.141Z,144.50
2018-02-18T03:55:21.671Z,149.50
2018-02-18T03:57:49.231Z,136.40
2018-02-18T04:00:16.813Z,134.63
2018-02-18T04:02:44.354Z,126.07
2018-02-18T04:05:11.927Z,110.07
2018-02-18T04:07:39.482Z,130.60
2018-02-18T04:10:07.021Z,147.40
2018-02-18T04:12:34.771Z,146.33
2018-02-18T04:15:02.338Z,124.97
2018-02-18T04:17:29.878Z,133.43
2018-02-18T04:19:57.481Z,133.80
2018-02-18T04:22:25.034Z,132.07
2018-02-18T04:24:52.633Z,123.70
2018-02-18T04:27:20.192Z,113.90
2018-02-18T04:29:47.748Z,123.67
2018-02-18T04:32:15.286Z,128.70
2018-02-18T04:34:42.836Z,139.10
2018-02-18T04:37:10.387Z,115.23
2018-02-18T04:39:37.979Z,132.27
2018-02-18T04:42:05.522Z,125.13
2018-02-18T04:44:33.082Z,106.60
2018-02-18T04:47:00.631Z,116.37
2018-02-18T04:49:28.188Z,117.73
2018-02-18T04:51:55.833Z,128.40
2018-02-18T04:54:23.396Z,113.00
2018-02-18T04:56:50.966Z,120.03
2018-02-18T04:59:18.527Z,115.57
2018-02-18T05:01:46.052Z,126.17
2018-02-18T05:04:13.748Z,117.27
2018-02-18T05:06:41.306Z,118.47
2018-02-18T05:09:08.907Z,118.37
2018-02-18T05:11:36.435Z,118.20
2018-02-18T05:14:03.993Z,117.97
2018-02-18T05:16:31.600Z,111.13
2018-02-18T05:18:59.147Z,100.67
2018-02-18T05:21:26.711Z,106.73
2018-02-18T05:23:54.314Z,110.50
2018-02-18T05:26:21.875Z,115.13
2018-02-18T05:28:49.412Z,106.73
2018-02-18T05:31:16.984Z,113.57
2018-02-18T05:33:44.578Z,108.30
2018-02-18T05:36:12.136Z,106.27
2018-02-18T05:38:39.744Z,101.33
2018-02-18T05:41:08.226Z,91.77
2018-02-18T05:43:35.788Z,97.23
2018-02-18T05:46:03.381Z,95.10
2018-02-18T05:48:30.911Z,92.03
2018-02-18T05:50:58.506Z,78.63
2018-02-18T05:53:26.103Z,97.43
2018-02-18T05:55:53.647Z,87.37
2018-02-18T05:58:21.185Z,98.80
2018-02-18T06:00:48.752Z,95.40
2018-02-18T06:03:16.296Z,122.60
2018-02-18T06:05:43.898Z,86.00
2018-02-18T06:08:11.455Z,87.07
2018-02-18T06:10:39.012Z,92.50
2018-02-18T06:13:06.598Z,90.33
2018-02-18T06:15:34.176Z,88.80
2018-02-18T06:18:01.710Z,99.93
2018-02-18T06:20:29.242Z,97.17
2018-02-18T06:22:56.787Z,97.77
2018-02-18T06:25:24.541Z,78.57
2018-02-18T06:27:52.167Z,76.40
2018-02-18T06:30:19.703Z,76.57
2018-02-18T06:32:47.300Z,66.37
2018-02-18T06:35:14.857Z,74.77
2018-02-18T06:37:42.413Z,77.83
2018-02-18T06:40:10.045Z,83.97
2018-02-18T06:42:37.713Z,78.80
2018-02-18T06:45:05.259Z,79.77
2018-02-18T06:47:32.836Z,90.23
2018-02-18T06:50:00.385Z,76.57
2018-02-18T06:52:27.945Z,76.67
2018-02-18T06:54:55.522Z,78.67
2018-02-18T06:57:23.068Z,82.80
2018-02-18T06:59:50.708Z,88.83
2018-02-18T07:02:18.255Z,79.20
2018-02-18T07:04:45.798Z,96.43
2018-02-18T07:07:13.378Z,90.57
2018-02-18T07:09:40.929Z,82.70
2018-02-18T07:12:08.525Z,64.53
2018-02-18T07:14:36.075Z,56.13
2018-02-18T07:17:03.604Z,69.90
2018-02-18T07:19:31.172Z,72.17
2018-02-18T07:21:58.724Z,72.63
2018-02-18T07:24:26.260Z,69.97
2018-02-18T07:26:53.827Z,76.20
2018-02-18T07:29:21.407Z,83.73
2018-02-18T07:31:48.970Z,90.30
2018-02-18T07:34:17.546Z,81.33
2018-02-18T07:36:45.495Z,88.73
2018-02-18T07:39:13.026Z,75.03
2018-02-18T07:41:40.575Z,86.73
2018-02-18T07:44:08.148Z,101.93
2018-02-18T07:46:35.667Z,78.17
2018-02-18T07:49:03.244Z,79.70
2018-02-18T07:51:30.795Z,78.27
2018-02-18T07:53:58.389Z,94.10
2018-02-18T07:56:25.967Z,126.60
2018-02-18T07:58:53.516Z,126.63
2018-02-18T08:01:21.107Z,100.77
2018-02-18T08:03:48.688Z,104.13
2018-02-18T08:06:16.264Z,94.23
2018-02-18T08:08:43.800Z,103.23
2018-02-18T08:11:11.413Z,87.47
2018-02-18T08:13:38.970Z,90.27
2018-02-18T08:16:06.498Z,91.50
2018-02-18T08:18:34.066Z,85.13
2018-02-18T08:21:01.628Z,83.00
2018-02-18T08:23:29.225Z,88.00
2018-02-18T08:25:56.763Z,82.33
2018-02-18T08:28:24.313Z,79.60
2018-02-18T08:30:51.868Z,95.00
2018-02-18T08:33:19.436Z,87.47
2018-02-18T08:35:46.964Z,88.03
2018-02-18T08:38:14.685Z,68.97
2018-02-18T08:40:42.219Z,85.07
2018-02-18T08:43:09.767Z,82.80
2018-02-18T08:45:37.388Z,82.23
2018-02-18T08:48:04.932Z,92.47
2018-02-18T08:50:32.513Z,73.30
2018-02-18T08:53:00.434Z,64.07
2018-02-18T08:55:28.022Z,78.17
2018-02-18T08:57:55.611Z,69.33
2018-02-18T09:00:23.145Z,77.00
2018-02-18T09:02:50.742Z,79.00
2018-02-18T09:05:18.331Z,74.67
2018-02-18T09:07:45.851Z,75.90
2018-02-18T09:10:13.424Z,81.40
2018-02-18T09:12:41.011Z,69.90
2018-02-18T09:15:08.565Z,71.33
2018-02-18T09:17:36.102Z,67.87
2018-02-18T09:20:03.661Z,71.30
2018-02-18T09:22:31.206Z,84.43
2018-02-18T09:24:58.792Z,65.47
2018-02-18T09:27:26.318Z,64.03
2018-02-18T09:29:53.833Z,76.83
2018-02-18T09:32:21.399Z,66.17
2018-02-18T09:34:48.987Z,68.47
2018-02-18T09:37:16.528Z,67.47
2018-02-18T09:39:44.052Z,71.17
2018-02-18T09:42:11.616Z,60.80
2018-02-18T09:44:39.160Z,68.40
2018-02-18T09:47:06.684Z,62.67
2018-02-18T09:49:34.266Z,68.40
2018-02-18T09:52:01.793Z,64.57
2018-02-18T09:54:29.316Z,57.33
2018-02-18T09:56:56.868Z,60.93
2018-02-18T09:59:24.398Z,59.80
2018-02-18T10:01:51.945Z,56.37
2018-02-18T10:04:19.510Z,68.23
2018-02-18T10:06:47.077Z,60.33
2018-02-18T10:09:14.630Z,53.00
2018-02-18T10:11:42.191Z,69.63
2018-02-18T10:14:09.757Z,56.97
2018-02-18T10:16:37.297Z,55.47
2018-02-18T10:19:04.893Z,67.20
2018-02-18T10:21:32.431Z,56.30
2018-02-18T10:24:00.037Z,68.43
2018-02-18T10:26:27.617Z,69.27
2018-02-18T10:28:55.127Z,46.03
2018-02-18T10:31:22.667Z,63.07
2018-02-18T10:33:50.300Z,48.23
2018-02-18T10:36:17.869Z,56.50
2018-02-18T10:38:45.606Z,56.33
2018-02-18T10:41:13.171Z,60.40
2018-02-18T10:43:40.828Z,58.23
2018-02-18T10:46:08.436Z,60.20
2018-02-18T10:48:35.974Z,67.63
2018-02-18T10:51:03.515Z,57.80
2018-02-18T10:53:31.131Z,60.03
2018-02-18T10:55:58.689Z,61.40
2018-02-18T10:58:26.207Z,54.70
2018-02-18T11:00:53.842Z,55.50
2018-02-18T11:03:21.363Z,55.53
2018-02-18T11:05:49.139Z,55.80
2018-02-18T11:08:16.665Z,52.43
2018-02-18T11:10:44.206Z,54.70
2018-02-18T11:13:11.785Z,58.97
2018-02-18T11:15:39.305Z,56.27
2018-02-18T11:18:06.820Z,65.03
2018-02-18T11:20:34.375Z,49.10
2018-02-18T11:23:01.951Z,67.27
2018-02-18T11:25:29.483Z,55.57
2018-02-18T11:27:57.081Z,53.47
2018-02-18T11:30:24.634Z,55.83
2018-02-18T11:32:52.254Z,57.93
2018-02-18T11:35:19.804Z,51.13
2018-02-18T11:37:47.335Z,53.57
2018-02-18T11:40:14.935Z,56.23
2018-02-18T11:42:42.557Z,51.23
2018-02-18T11:45:10.090Z,55.60
2018-02-18T11:47:37.654Z,63.03
2018-02-18T11:50:05.216Z,59.00
2018-02-18T11:52:32.794Z,64.20
2018-02-18T11:55:00.337Z,63.20
2018-02-18T11:57:27.875Z,58.13
2018-02-18T11:59:55.453Z,53.20
2018-02-18T12:02:23.063Z,52.13
2018-02-18T12:04:50.584Z,55.30
2018-02-18T12:07:18.148Z,64.13
2018-02-18T12:09:45.754Z,55.87
2018-02-18T12:12:13.292Z,54.73
2018-02-18T12:14:40.841Z,62.30
2018-02-18T12:17:08.421Z,49.33
2018-02-18T12:19:36.091Z,51.10
2018-02-18T12:22:03.697Z,60.27
2018-02-18T12:24:31.355Z,43.77
2018-02-18T12:26:58.882Z,59.23
2018-02-18T12:29:26.414Z,46.50
2018-02-18T12:31:54.007Z,51.90
2018-02-18T12:34:21.534Z,43.93
2018-02-18T12:36:49.066Z,43.67
2018-02-18T12:39:16.644Z,56.73
2018-02-18T12:41:44.166Z,46.30
2018-02-18T12:44:11.724Z,57.10
2018-02-18T12:46:39.277Z,49.40
2018-02-18T12:49:06.800Z,40.23
2018-02-18T12:51:34.422Z,47.23
2018-02-18T12:54:01.987Z,40.80
2018-02-18T12:56:29.544Z,48.50
2018-02-18T12:58:57.197Z,48.63
2018-02-18T13:01:26.594Z,45.63
2018-02-18T13:03:54.864Z,50.90
2018-02-18T13:06:22.498Z,40.57
2018-02-18T13:08:50.020Z,47.20
2018-02-18T13:11:17.587Z,41.20
2018-02-18T13:13:45.165Z,53.03
2018-02-18T13:16:12.736Z,55.20
2018-02-18T13:18:40.276Z,45.83
2018-02-18T13:21:07.834Z,51.87
2018-02-18T13:23:35.379Z,57.30
2018-02-18T13:26:02.947Z,52.30
2018-02-18T13:28:30.492Z,62.07
2018-02-18T13:30:58.119Z,72.00
2018-02-18T13:33:25.690Z,70.77
2018-02-18T13:35:53.232Z,50.07
2018-02-18T13:38:20.783Z,53.83
2018-02-18T13:40:48.444Z,52.73
2018-02-18T13:43:16.005Z,58.90
2018-02-18T13:45:43.573Z,57.70
2018-02-18T13:48:11.106Z,56.40
2018-02-18T13:50:38.678Z,56.87
2018-02-18T13:53:06.382Z,48.20
2018-02-18T13:55:34.055Z,64.73
2018-02-18T13:58:01.680Z,49.10
2018-02-18T14:00:29.285Z,57.00
2018-02-18T14:02:56.828Z,51.80
2018-02-18T14:05:24.376Z,56.97
2018-02-18T14:07:51.935Z,50.13
2018-02-18T14:10:19.482Z,51.60
2018-02-18T14:12:47.043Z,58.70
2018-02-18T14:15:14.654Z,38.63
2018-02-18T14:17:42.199Z,48.73
2018-02-18T14:20:09.769Z,54.57
2018-02-18T14:22:37.417Z,50.83
2018-02-18T14:25:04.991Z,44.13
2018-02-18T14:27:32.540Z,48.17
2018-02-18T14:30:00.137Z,48.73
2018-02-18T14:32:27.686Z,53.00
2018-02-18T14:34:55.213Z,47.97
2018-02-18T14:37:22.903Z,43.30
2018-02-18T14:39:50.462Z,50.60
2018-02-18T14:42:29.847Z,50.13
2018-02-18T14:45:09.409Z,53.40
2018-02-18T14:47:48.813Z,45.70
2018-02-18T14:50:28.189Z,48.37
2018-02-18T14:53:07.593Z,43.03
2018-02-18T14:58:36.963Z,53.20
2018-02-18T15:01:04.688Z,46.40
2018-02-18T15:03:32.271Z,48.50
2018-02-18T15:05:59.888Z,44.40
2018-02-18T15:08:27.420Z,61.63
2018-02-18T15:10:55.072Z,50.70
2018-02-18T15:13:22.651Z,50.37
2018-02-18T15:15:50.210Z,56.90
2018-02-18T15:18:17.825Z,55.97
2018-02-18T15:20:45.389Z,46.90
2018-02-18T15:23:13.044Z,47.20
2018-02-18T15:25:40.581Z,47.90
2018-02-18T15:28:08.476Z,47.97
2018-02-18T15:30:36.171Z,49.20
2018-02-18T15:33:03.745Z,45.23
2018-02-18T15:35:31.284Z,52.23
2018-02-18T15:37:59.038Z,48.80
2018-02-18T15:40:26.619Z,49.30
2018-02-18T15:42:54.176Z,46.93
2018-02-18T15:45:21.712Z,46.97
2018-02-18T15:47:49.333Z,50.03
2018-02-18T15:50:16.887Z,55.50
2018-02-18T15:52:44.456Z,51.27
2018-02-18T15:55:12.003Z,77.87
2018-02-18T15:57:39.774Z,80.97
2018-02-18T16:00:07.415Z,55.60
2018-02-18T16:02:35.012Z,51.63
2018-02-18T16:05:02.582Z,58.33
2018-02-18T16:07:30.143Z,52.53
2018-02-18T16:09:57.733Z,48.43
2018-02-18T16:12:25.268Z,55.23
2018-02-18T16:14:52.877Z,48.43
2018-02-18T16:17:20.454Z,63.60
2018-02-18T16:19:48.058Z,50.00
2018-02-18T16:22:15.781Z,53.50
2018-02-18T16:24:43.411Z,55.90
2018-02-18T16:27:10.979Z,51.23
2018-02-18T16:29:38.519Z,58.33
2018-02-18T16:32:06.511Z,80.60
2018-02-18T16:34:34.110Z,100.70
2018-02-18T16:37:01.681Z,103.83
2018-02-18T16:39:29.249Z,63.40
2018-02-18T16:41:56.790Z,67.87
2018-02-18T16:44:24.405Z,76.80
2018-02-18T16:46:51.943Z,65.83
2018-02-18T16:49:19.459Z,57.23
2018-02-18T16:51:47.142Z,58.63
2018-02-18T16:54:14.724Z,56.03
2018-02-18T16:56:42.322Z,59.87
2018-02-18T16:59:09.867Z,62.03
2018-02-18T17:01:37.399Z,52.13
2018-02-18T17:04:04.987Z,64.60
2018-02-18T17:06:32.572Z,61.73
2018-02-18T17:09:00.462Z,56.90
2018-02-18T17:11:28.037Z,64.53
2018-02-18T17:13:55.667Z,57.70
2018-02-18T17:16:23.300Z,70.87
2018-02-18T17:18:50.921Z,66.10
2018-02-18T17:21:18.539Z,70.77
2018-02-18T17:23:46.170Z,62.97
2018-02-18T17:26:13.744Z,61.07
2018-02-18T17:28:41.323Z,72.33
2018-02-18T17:31:08.860Z,67.20
2018-02-18T17:33:36.406Z,71.33
2018-02-18T17:36:03.981Z,70.70
2018-02-18T17:38:31.521Z,61.20
2018-02-18T17:40:59.040Z,65.10
2018-02-18T17:43:26.594Z,71.13
2018-02-18T17:45:54.328Z,70.20
2018-02-18T17:48:21.903Z,69.43
2018-02-18T17:50:49.469Z,80.63
2018-02-18T17:53:17.001Z,66.07
2018-02-18T17:55:44.559Z,65.80
2018-02-18T17:58:12.087Z,68.77
2018-02-18T18:00:39.647Z,89.07
2018-02-18T18:03:07.214Z,76.47
2018-02-18T18:05:34.730Z,70.17
2018-02-18T18:08:02.282Z,71.00
2018-02-18T18:10:29.961Z,78.63
2018-02-18T18:12:57.516Z,71.33
2018-02-18T18:15:25.053Z,78.93
2018-02-18T18:17:52.656Z,77.80
2018-02-18T18:20:20.195Z,79.17
2018-02-18T18:22:47.809Z,67.47
2018-02-18T18:25:15.359Z,73.10
2018-02-18T18:27:42.901Z,72.67
2018-02-18T18:30:10.477Z,71.77
2018-02-18T18:32:38.056Z,80.93
2018-02-18T18:35:05.800Z,76.17
2018-02-18T18:37:33.349Z,72.40
2018-02-18T18:40:00.961Z,79.13
2018-02-18T18:42:28.524Z,80.50
2018-02-18T18:44:56.820Z,72.67
2018-02-18T18:47:25.057Z,71.13
2018-02-18T18:49:52.671Z,80.10
2018-02-18T18:52:20.191Z,74.87
2018-02-18T18:54:47.763Z,89.07
2018-02-18T18:57:15.361Z,84.27
2018-02-18T18:59:42.942Z,85.13
2018-02-18T19:02:10.483Z,78.60
2018-02-18T19:04:38.075Z,86.90
2018-02-18T19:07:05.629Z,87.63
2018-02-18T19:09:33.198Z,81.20
2018-02-18T19:12:00.859Z,93.90
2018-02-18T19:14:28.494Z,114.00
2018-02-18T19:16:56.081Z,90.97
2018-02-18T19:19:23.659Z,88.43
2018-02-18T19:21:51.184Z,99.93
2018-02-18T19:24:18.710Z,88.37
2018-02-18T19:26:46.272Z,86.70
2018-02-18T19:29:13.827Z,85.33
2018-02-18T19:31:41.381Z,81.50
2018-02-18T19:34:08.956Z,97.30
2018-02-18T19:36:36.503Z,91.97
2018-02-18T19:39:04.116Z,91.07
2018-02-18T19:41:31.647Z,84.40
2018-02-18T19:43:59.216Z,89.57
2018-02-18T19:46:27.323Z,98.70
2018-02-18T19:48:54.915Z,86.90
2018-02-18T19:51:22.508Z,96.03
2018-02-18T19:53:50.995Z,97.83
2018-02-18T19:56:18.575Z,98.13
2018-02-18T19:58:46.170Z,103.87
2018-02-18T20:01:13.692Z,95.50
2018-02-18T20:03:41.274Z,95.27
2018-02-18T20:06:08.877Z,103.30
2018-02-18T20:08:36.445Z,88.27
2018-02-18T20:11:03.988Z,95.03
2018-02-18T20:13:31.590Z,96.17
2018-02-18T20:15:59.160Z,85.33
2018-02-18T20:18:26.697Z,100.23
2018-02-18T20:20:54.286Z,95.00
2018-02-18T20:23:21.851Z,97.50
2018-02-18T20:25:49.389Z,88.33
2018-02-18T20:28:16.931Z,96.47
2018-02-18T20:30:44.496Z,101.67
2018-02-18T20:33:12.116Z,105.63
2018-02-18T20:35:39.653Z,93.83
2018-02-18T20:38:07.180Z,87.13
2018-02-18T20:40:34.780Z,102.13
2018-02-18T20:43:02.327Z,89.37
2018-02-18T20:45:29.863Z,82.07
2018-02-18T20:47:57.512Z,109.90
2018-02-18T20:50:25.041Z,112.95
2018-02-18T20:52:52.576Z,93.53
2018-02-18T20:55:20.116Z,97.40
2018-02-18T20:57:47.659Z,90.83
2018-02-18T21:00:15.505Z,101.33
2018-02-18T21:02:43.210Z,83.97
2018-02-18T21:05:10.748Z,91.73
2018-02-18T21:07:38.338Z,89.43
2018-02-18T21:10:05.879Z,80.57
2018-02-18T21:12:33.444Z,92.73
2018-02-18T21:15:01.048Z,102.43
2018-02-18T21:17:28.600Z,94.53
2018-02-18T21:19:56.152Z,106.47
2018-02-18T21:22:23.730Z,95.03
2018-02-18T21:24:51.256Z,86.23
2018-02-18T21:27:18.847Z,94.30
2018-02-18T21:29:46.379Z,101.60
2018-02-18T21:32:13.929Z,103.37
2018-02-18T21:34:42.378Z,95.97
2018-02-18T21:37:09.972Z,91.83
2018-02-18T21:39:37.523Z,109.40
2018-02-18T21:42:05.107Z,94.33
2018-02-18T21:44:32.646Z,99.10
2018-02-18T21:47:00.181Z,97.63
2018-02-18T21:49:27.762Z,99.43
2018-02-18T21:51:55.316Z,83.33
2018-02-18T21:54:22.882Z,92.47
2018-02-18T21:56:50.419Z,109.13
2018-02-18T21:59:18.067Z,108.30
2018-02-18T22:01:45.621Z,107.50
2018-02-18T22:04:13.145Z,90.77
2018-02-18T22:06:40.745Z,85.57
2018-02-18T22:09:08.233Z,91.70
2018-02-18T22:11:35.789Z,83.97
2018-02-18T22:14:03.329Z,98.80
2018-02-18T22:16:30.875Z,92.67
2018-02-18T22:18:58.423Z,79.50
2018-02-18T22:21:25.994Z,94.40
2018-02-18T22:23:53.557Z,72.60
2018-02-18T22:26:21.102Z,91.30
2018-02-18T22:28:48.673Z,87.50
2018-02-18T22:31:16.239Z,87.83
2018-02-18T22:33:43.768Z,82.00
2018-02-18T22:36:11.340Z,78.97
2018-02-18T22:38:38.941Z,88.97
2018-02-18T22:41:06.503Z,76.77
2018-02-18T22:43:34.031Z,77.80
2018-02-18T22:46:01.576Z,75.13
2018-02-18T22:48:29.102Z,76.03
2018-02-18T22:50:56.683Z,80.23
2018-02-18T22:53:24.214Z,70.07
2018-02-18T22:55:51.750Z,71.20
2018-02-18T22:58:19.319Z,73.40
2018-02-18T23:00:47.023Z,74.03
2018-02-18T23:03:14.539Z,66.70
2018-02-18T23:05:47.756Z,79.53
2018-02-18T23:08:15.338Z,72.97
2018-02-18T23:10:42.867Z,65.10
2018-02-18T23:13:10.432Z,76.23
2018-02-18T23:15:37.963Z,68.80
2018-02-18T23:18:05.562Z,72.77
2018-02-18T23:20:44.906Z,71.33
2018-02-18T23:23:12.459Z,72.33
2018-02-18T23:25:40.036Z,72.70
2018-02-18T23:28:07.577Z,74.33
2018-02-18T23:30:35.104Z,72.57
2018-02-18T23:33:02.669Z,78.30
2018-02-18T23:35:30.203Z,68.50
2018-02-18T23:37:57.719Z,67.17
2018-02-18T23:40:25.292Z,66.17
2018-02-18T23:42:52.812Z,71.80
2018-02-18T23:45:21.190Z,78.00
2018-02-18T23:47:48.918Z,69.10
2018-02-18T23:50:16.454Z,60.17
2018-02-18T23:52:43.994Z,70.90
2018-02-18T23:55:11.551Z,67.83
2018-02-18T23:57:39.091Z,70.10
